sensor_id;sensor_type;location;lat;lon;timestamp;P1;durP1;ratioP1;P2;durP2;ratioP2
12373;SDS011;6251;51.762;8.660;2022-08-19T01:07:12;7.60;;;6.82;;
12373;SDS011;6251;51.762;8.660;2022-08-19T02:48:56;9.25;;;8.35;;
12373;SDS011;6251;51.762;8.660;2022-08-19T02:58:59;9.80;;;8.80;;
12373;SDS011;6251;51.762;8.660;2022-08-19T04:31:13;11.30;;;10.00;;
12373;SDS011;6251;51.762;8.660;2022-08-19T04:52:14;12.70;;;11.02;;
12373;SDS011;6251;51.762;8.660;2022-08-19T05:02:15;14.32;;;12.07;;
12373;SDS011;6251;51.762;8.660;2022-08-19T05:12:16;13.65;;;12.07;;
12373;SDS011;6251;51.762;8.660;2022-08-19T05:22:28;18.17;;;15.20;;
12373;SDS011;6251;51.762;8.660;2022-08-19T05:32:34;16.12;;;13.80;;
12373;SDS011;6251;51.762;8.660;2022-08-19T05:42:35;19.58;;;16.55;;
12373;SDS011;6251;51.762;8.660;2022-08-19T05:52:36;24.92;;;19.05;;
12373;SDS011;6251;51.762;8.660;2022-08-19T06:02:38;19.95;;;14.95;;
12373;SDS011;6251;51.762;8.660;2022-08-19T06:12:39;22.40;;;17.80;;
12373;SDS011;6251;51.762;8.660;2022-08-19T06:22:40;25.70;;;20.08;;
12373;SDS011;6251;51.762;8.660;2022-08-19T06:32:43;23.60;;;18.27;;
12373;SDS011;6251;51.762;8.660;2022-08-19T06:53:15;18.83;;;15.93;;
12373;SDS011;6251;51.762;8.660;2022-08-19T07:03:17;21.10;;;15.93;;
12373;SDS011;6251;51.762;8.660;2022-08-19T07:13:18;18.12;;;15.00;;
12373;SDS011;6251;51.762;8.660;2022-08-19T07:33:43;16.90;;;13.68;;
12373;SDS011;6251;51.762;8.660;2022-08-19T07:43:46;12.75;;;11.35;;
12373;SDS011;6251;51.762;8.660;2022-08-19T07:53:47;13.10;;;10.70;;
12373;SDS011;6251;51.762;8.660;2022-08-19T08:04:02;11.73;;;10.52;;
12373;SDS011;6251;51.762;8.660;2022-08-19T08:14:46;9.43;;;8.43;;
12373;SDS011;6251;51.762;8.660;2022-08-19T08:24:50;12.13;;;7.93;;
12373;SDS011;6251;51.762;8.660;2022-08-19T08:34:51;9.50;;;8.50;;
12373;SDS011;6251;51.762;8.660;2022-08-19T08:44:56;11.18;;;7.50;;
12373;SDS011;6251;51.762;8.660;2022-08-19T09:16:20;5.85;;;5.35;;
12373;SDS011;6251;51.762;8.660;2022-08-19T09:26:26;7.45;;;6.78;;
12373;SDS011;6251;51.762;8.660;2022-08-19T09:36:27;6.45;;;5.90;;
12373;SDS011;6251;51.762;8.660;2022-08-19T10:29:22;5.37;;;4.87;;
12373;SDS011;6251;51.762;8.660;2022-08-19T10:40:07;4.75;;;4.45;;
12373;SDS011;6251;51.762;8.660;2022-08-19T11:02:43;5.10;;;4.70;;
12373;SDS011;6251;51.762;8.660;2022-08-19T11:23:20;3.20;;;3.00;;
12373;SDS011;6251;51.762;8.660;2022-08-19T11:33:21;3.57;;;3.27;;
12373;SDS011;6251;51.762;8.660;2022-08-19T11:43:22;2.80;;;2.65;;
12373;SDS011;6251;51.762;8.660;2022-08-19T11:53:23;2.90;;;2.80;;
12373;SDS011;6251;51.762;8.660;2022-08-19T12:03:24;2.47;;;2.37;;
12373;SDS011;6251;51.762;8.660;2022-08-19T12:13:27;2.70;;;2.50;;
12373;SDS011;6251;51.762;8.660;2022-08-19T12:23:30;2.30;;;2.20;;
12373;SDS011;6251;51.762;8.660;2022-08-19T12:33:32;2.67;;;2.58;;
12373;SDS011;6251;51.762;8.660;2022-08-19T12:43:42;2.80;;;2.70;;
12373;SDS011;6251;51.762;8.660;2022-08-19T12:53:43;3.58;;;3.15;;
12373;SDS011;6251;51.762;8.660;2022-08-19T13:03:49;3.37;;;3.08;;
12373;SDS011;6251;51.762;8.660;2022-08-19T13:14:03;3.08;;;2.87;;
12373;SDS011;6251;51.762;8.660;2022-08-19T13:24:04;3.10;;;3.00;;
12373;SDS011;6251;51.762;8.660;2022-08-19T13:34:11;2.97;;;2.78;;
12373;SDS011;6251;51.762;8.660;2022-08-19T13:44:28;3.58;;;3.33;;
12373;SDS011;6251;51.762;8.660;2022-08-19T13:54:35;3.37;;;3.08;;
12373;SDS011;6251;51.762;8.660;2022-08-19T14:04:36;2.97;;;2.87;;
12373;SDS011;6251;51.762;8.660;2022-08-19T14:14:38;3.30;;;3.20;;
12373;SDS011;6251;51.762;8.660;2022-08-19T14:24:42;3.00;;;2.90;;
12373;SDS011;6251;51.762;8.660;2022-08-19T14:34:43;3.58;;;3.28;;
12373;SDS011;6251;51.762;8.660;2022-08-19T14:44:45;3.50;;;3.40;;
12373;SDS011;6251;51.762;8.660;2022-08-19T14:54:46;3.20;;;3.00;;
12373;SDS011;6251;51.762;8.660;2022-08-19T15:04:46;3.55;;;3.35;;
12373;SDS011;6251;51.762;8.660;2022-08-19T15:14:47;2.87;;;2.78;;
12373;SDS011;6251;51.762;8.660;2022-08-19T15:24:50;3.37;;;3.17;;
12373;SDS011;6251;51.762;8.660;2022-08-19T15:34:50;3.05;;;2.85;;
12373;SDS011;6251;51.762;8.660;2022-08-19T15:44:51;3.45;;;3.25;;
12373;SDS011;6251;51.762;8.660;2022-08-19T16:05:55;2.83;;;2.70;;
12373;SDS011;6251;51.762;8.660;2022-08-19T16:26:25;2.80;;;2.70;;
12373;SDS011;6251;51.762;8.660;2022-08-19T16:36:32;3.67;;;3.55;;
12373;SDS011;6251;51.762;8.660;2022-08-19T16:46:33;3.75;;;3.50;;
12373;SDS011;6251;51.762;8.660;2022-08-19T16:56:36;3.58;;;3.37;;
12373;SDS011;6251;51.762;8.660;2022-08-19T17:06:36;3.83;;;3.63;;
12373;SDS011;6251;51.762;8.660;2022-08-19T17:16:38;4.10;;;3.80;;
12373;SDS011;6251;51.762;8.660;2022-08-19T17:37:03;3.85;;;3.65;;
12373;SDS011;6251;51.762;8.660;2022-08-19T17:47:03;3.60;;;3.50;;
12373;SDS011;6251;51.762;8.660;2022-08-19T17:57:04;3.70;;;3.50;;
12373;SDS011;6251;51.762;8.660;2022-08-19T18:07:05;4.93;;;4.47;;
12373;SDS011;6251;51.762;8.660;2022-08-19T18:17:10;4.47;;;4.00;;
12373;SDS011;6251;51.762;8.660;2022-08-19T18:37:26;5.57;;;4.20;;
12373;SDS011;6251;51.762;8.660;2022-08-19T18:47:27;4.15;;;3.95;;
12373;SDS011;6251;51.762;8.660;2022-08-19T18:57:46;5.12;;;4.82;;
12373;SDS011;6251;51.762;8.660;2022-08-19T19:07:47;4.68;;;4.40;;
12373;SDS011;6251;51.762;8.660;2022-08-19T19:17:48;4.93;;;4.62;;
12373;SDS011;6251;51.762;8.660;2022-08-19T19:27:48;5.05;;;4.70;;
12373;SDS011;6251;51.762;8.660;2022-08-19T20:08:20;5.80;;;5.40;;
12373;SDS011;6251;51.762;8.660;2022-08-19T20:18:39;6.70;;;5.40;;
12373;SDS011;6251;51.762;8.660;2022-08-19T20:28:42;6.50;;;6.00;;
12373;SDS011;6251;51.762;8.660;2022-08-19T20:38:43;6.35;;;5.95;;
12373;SDS011;6251;51.762;8.660;2022-08-19T20:48:44;6.93;;;6.32;;
12373;SDS011;6251;51.762;8.660;2022-08-19T20:58:45;6.68;;;6.10;;
12373;SDS011;6251;51.762;8.660;2022-08-19T23:00:40;9.32;;;8.43;;
12373;SDS011;6251;51.762;8.660;2022-08-19T23:10:40;10.57;;;9.00;;
